createdAt,value
2022-10-17T10:10:58.918Z,3.78
2022-10-17T10:15:41.553Z,7.80
2022-10-17T10:18:36.028Z,8.32
2022-10-17T10:21:04.651Z,7.68
2022-10-17T10:23:31.845Z,8.63
2022-10-17T10:26:01.620Z,5.93
2022-10-17T10:28:32.428Z,8.82
2022-10-17T10:31:02.884Z,7.88
2022-10-17T10:33:32.269Z,11.65
2022-10-17T10:36:01.956Z,8.80
2022-10-17T10:38:32.326Z,6.97
2022-10-17T10:41:05.521Z,9.90
2022-10-17T10:43:45.508Z,11.13
2022-10-17T10:46:23.689Z,7.88
2022-10-17T10:49:00.531Z,9.33
2022-10-17T10:51:39.855Z,8.38
2022-10-17T10:54:21.934Z,5.97
2022-10-17T10:56:53.390Z,5.82
2022-10-17T10:59:20.504Z,7.28
2022-10-17T11:01:49.941Z,4.78
2022-10-17T11:04:47.811Z,9.45
2022-10-17T11:07:42.035Z,9.95
2022-10-17T11:10:25.575Z,14.27
2022-10-17T11:13:18.268Z,25.95
2022-10-17T11:16:00.021Z,22.52
2022-10-17T11:18:35.394Z,6.95
2022-10-17T11:21:34.225Z,10.63
2022-10-17T11:24:25.347Z,5.78
2022-10-17T11:27:02.751Z,8.75
2022-10-17T11:29:36.044Z,7.97
2022-10-17T11:32:13.508Z,6.32
2022-10-17T11:34:48.528Z,7.35
2022-10-17T11:37:21.826Z,6.28
2022-10-17T11:39:54.966Z,9.48
2022-10-17T11:42:27.494Z,12.10
2022-10-17T11:45:03.184Z,10.07
2022-10-17T11:47:46.578Z,7.40
2022-10-17T11:53:14.372Z,7.50
2022-10-17T11:55:42.095Z,7.35
2022-10-17T11:58:37.586Z,8.73
2022-10-17T12:01:21.287Z,14.70
2022-10-17T12:04:06.836Z,10.60
2022-10-17T12:06:45.573Z,8.15
2022-10-17T12:09:38.795Z,6.20
2022-10-17T12:12:05.767Z,10.02
2022-10-17T12:14:42.308Z,14.10
2022-10-17T12:17:32.967Z,12.13
2022-10-17T12:20:25.386Z,13.52
2022-10-17T12:23:03.279Z,9.45
2022-10-17T12:25:47.748Z,6.22
2022-10-17T12:28:17.743Z,6.53
2022-10-17T12:30:58.633Z,12.30
2022-10-17T12:33:32.000Z,9.30
2022-10-17T12:36:21.916Z,7.80
2022-10-17T12:38:51.408Z,7.90
2022-10-17T12:41:37.874Z,9.07
2022-10-17T12:44:14.447Z,11.88
2022-10-17T12:46:41.305Z,6.45
2022-10-17T12:49:42.199Z,7.63
2022-10-17T12:52:31.767Z,11.40
2022-10-17T12:55:12.203Z,12.43
2022-10-17T12:57:51.647Z,8.68
2022-10-17T13:01:23.596Z,12.35
2022-10-17T13:03:53.572Z,12.95
2022-10-17T13:06:26.800Z,7.47
2022-10-17T13:09:04.148Z,8.85
2022-10-17T13:11:34.563Z,12.20
2022-10-17T13:14:04.719Z,10.27
2022-10-17T13:16:40.346Z,9.13
2022-10-17T13:19:19.756Z,10.57
2022-10-17T13:21:56.131Z,10.55
2022-10-17T13:24:27.728Z,7.22
2022-10-17T13:26:54.273Z,11.90
2022-10-17T13:29:21.989Z,7.20
2022-10-17T13:31:54.628Z,9.52
2022-10-17T13:34:26.263Z,6.45
2022-10-17T13:36:56.446Z,8.95
2022-10-17T13:39:38.329Z,9.45
2022-10-17T13:42:36.955Z,10.55
2022-10-17T13:45:13.683Z,8.38
2022-10-17T13:47:41.430Z,8.70
2022-10-17T13:50:26.313Z,5.32
2022-10-17T13:53:17.212Z,7.32
2022-10-17T13:56:22.814Z,11.50
2022-10-17T13:59:06.851Z,9.98
2022-10-17T14:01:33.781Z,7.27
2022-10-17T14:04:08.815Z,6.30
2022-10-17T14:06:46.200Z,13.25
2022-10-17T14:09:29.125Z,15.55
2022-10-17T14:14:27.046Z,11.65
2022-10-17T14:16:54.226Z,12.18
2022-10-17T14:19:27.947Z,8.52
2022-10-17T14:21:57.227Z,9.52
2022-10-17T14:24:24.300Z,6.57
2022-10-17T14:26:53.201Z,11.07
2022-10-17T14:29:26.778Z,9.10
2022-10-17T14:31:59.620Z,9.30
2022-10-17T14:34:34.621Z,11.43
2022-10-17T14:37:01.699Z,9.27
2022-10-17T14:39:29.567Z,10.60
2022-10-17T14:41:58.704Z,9.25
2022-10-17T14:44:34.711Z,8.43
2022-10-17T14:47:30.298Z,9.60
2022-10-17T14:50:02.838Z,9.57
2022-10-17T14:52:31.978Z,16.40
2022-10-17T14:55:12.523Z,12.73
2022-10-17T14:57:46.069Z,10.23
2022-10-17T15:00:15.131Z,10.25
2022-10-17T15:02:42.032Z,9.35
2022-10-17T15:05:13.075Z,7.80
2022-10-17T15:07:40.945Z,8.73
2022-10-17T15:10:23.762Z,9.63
2022-10-17T15:12:57.467Z,9.48
2022-10-17T15:15:32.059Z,8.75
2022-10-17T15:17:59.056Z,8.63
2022-10-17T15:20:28.324Z,20.98
2022-10-17T15:22:55.415Z,7.18
2022-10-17T15:25:24.810Z,10.27
2022-10-17T15:30:26.953Z,14.45
2022-10-17T15:32:53.854Z,295.27
2022-10-17T15:35:22.501Z,157.63
2022-10-17T15:37:49.419Z,157.75
2022-10-17T15:40:20.719Z,162.90
2022-10-17T15:42:47.404Z,39.85
2022-10-17T15:45:16.654Z,35.83
2022-10-17T15:47:49.639Z,10.18
2022-10-17T15:50:17.636Z,13.43
2022-10-17T15:52:44.333Z,9.27
2022-10-17T15:55:11.324Z,13.57
2022-10-17T15:57:41.319Z,13.23
2022-10-17T16:00:17.120Z,8.10
2022-10-17T16:02:44.608Z,8.75
2022-10-17T16:05:23.620Z,11.73
2022-10-17T16:07:50.429Z,12.73
2022-10-17T16:10:18.460Z,4.85
2022-10-17T16:12:45.473Z,11.60
2022-10-17T16:15:14.875Z,9.18
2022-10-17T16:17:41.695Z,12.18
2022-10-17T16:20:09.573Z,9.90
2022-10-17T16:22:40.569Z,10.38
2022-10-17T16:25:19.391Z,9.38
2022-10-17T16:27:47.446Z,7.27
2022-10-17T16:30:15.820Z,10.35
2022-10-17T16:32:42.823Z,9.68
2022-10-17T16:35:16.577Z,6.30
2022-10-17T16:37:43.176Z,9.10
2022-10-17T16:40:11.288Z,11.07
2022-10-17T16:42:38.038Z,11.15
2022-10-17T16:45:05.380Z,9.68
2022-10-17T16:47:31.988Z,10.23
2022-10-17T16:49:59.032Z,7.38
2022-10-17T16:52:25.708Z,10.82
2022-10-17T16:54:53.489Z,6.95
2022-10-17T16:57:20.397Z,14.43
2022-10-17T16:59:47.453Z,10.60
2022-10-17T17:02:17.525Z,9.57
2022-10-17T17:04:47.468Z,7.05
2022-10-17T17:07:19.224Z,11.77
2022-10-17T17:09:46.268Z,10.20
2022-10-17T17:12:13.088Z,8.60
2022-10-17T17:14:40.244Z,7.30
2022-10-17T17:17:09.595Z,11.65
2022-10-17T17:19:42.713Z,14.77
2022-10-17T17:22:09.292Z,12.55
2022-10-17T17:24:36.633Z,13.00
2022-10-17T17:27:03.427Z,11.68
2022-10-17T17:29:30.680Z,10.77
2022-10-17T17:31:57.350Z,9.32
2022-10-17T17:34:24.406Z,8.75
2022-10-17T17:36:51.001Z,11.02
2022-10-17T17:39:17.770Z,11.57
2022-10-17T17:41:45.679Z,15.48
2022-10-17T17:44:16.739Z,9.32
2022-10-17T17:46:44.742Z,11.65
2022-10-17T17:49:12.790Z,11.63
2022-10-17T17:51:41.528Z,13.57
2022-10-17T17:54:11.760Z,12.73
2022-10-17T17:56:38.811Z,11.15
2022-10-17T17:59:06.051Z,10.50
2022-10-17T18:01:38.469Z,11.68
2022-10-17T18:04:08.927Z,9.75
2022-10-17T18:06:37.352Z,11.52
2022-10-17T18:09:05.788Z,10.73
2022-10-17T18:11:32.743Z,12.25
2022-10-17T18:14:03.796Z,12.07
2022-10-17T18:16:31.713Z,15.85
2022-10-17T18:19:04.169Z,14.02
2022-10-17T18:21:33.283Z,14.35
2022-10-17T18:24:00.492Z,14.95
2022-10-17T18:26:27.916Z,13.27
2022-10-17T18:28:55.305Z,12.88
2022-10-17T18:31:46.664Z,11.70
2022-10-17T18:34:13.574Z,11.93
2022-10-17T18:36:40.083Z,17.00
2022-10-17T18:39:07.265Z,12.63
2022-10-17T18:41:35.031Z,11.25
2022-10-17T18:44:05.487Z,12.80
2022-10-17T18:46:40.866Z,14.25
2022-10-17T18:49:19.222Z,10.90
2022-10-17T18:51:46.813Z,18.60
2022-10-17T18:54:17.439Z,15.10
2022-10-17T18:56:45.150Z,12.65
2022-10-17T18:59:12.829Z,15.15
2022-10-17T19:01:39.794Z,14.20
2022-10-17T19:04:06.899Z,15.10
2022-10-17T19:06:33.917Z,15.20
2022-10-17T19:09:05.263Z,14.38
2022-10-17T19:11:34.392Z,12.75
2022-10-17T19:16:34.623Z,15.90
2022-10-17T19:19:10.270Z,14.35
2022-10-17T19:21:37.609Z,15.43
2022-10-17T19:24:07.620Z,17.48
2022-10-17T19:26:36.316Z,15.88
2022-10-17T19:29:05.047Z,17.00
2022-10-17T19:31:32.920Z,13.98
2022-10-17T19:34:00.613Z,14.77
2022-10-17T19:36:33.251Z,13.88
2022-10-17T19:39:07.760Z,14.00
2022-10-17T19:41:36.234Z,17.25
2022-10-17T19:44:04.069Z,19.50
2022-10-17T19:46:33.799Z,16.98
2022-10-17T19:49:01.487Z,18.80
2022-10-17T19:51:29.144Z,13.23
2022-10-17T19:54:00.463Z,17.17
2022-10-17T19:56:28.857Z,17.60
2022-10-17T19:58:57.217Z,16.15
2022-10-17T20:01:26.215Z,17.23
2022-10-17T20:03:53.956Z,15.55
2022-10-17T20:06:21.574Z,15.15
2022-10-17T20:08:49.170Z,19.00
2022-10-17T20:11:19.073Z,17.45
2022-10-17T20:13:46.913Z,19.13
2022-10-17T20:16:34.897Z,16.40
2022-10-17T20:19:08.461Z,17.45
2022-10-17T20:21:36.524Z,17.08
2022-10-17T20:24:05.550Z,15.43
2022-10-17T20:26:38.121Z,21.27
2022-10-17T20:29:12.620Z,20.58
